Jamaica, Iowa
Current Conditions -  °F | °C
As of 3:15 AM on Wednesday 28 Jan 2015 (Local Time) from KBNW Reporting Station
Haze Haze  
Wind Chill: 18°   Ceiling: 300
Heat Index: 30°   Visibility: 1.7mi
Dew Point: 30°   Wind: 20mph
Humidity: 100%   Direction: 130°SE
Pressure: 30.04"   Gusts: NA
Location:  41.85°N, 94.31°W
Report Text: KBNW 280915Z AUTO 13017KT 1 3/4SM BR OVC003 M01/M01 A3004 RMK AO2
Loading
Personal Weather Stations






























Interactive Weather Map New forecast layout! Learn more

10-Day Weather Forecast

Advertisements
Track Severe Weather on mobile